createdAt,value
2019-01-04T00:00:27.167Z,-0.20
2019-01-04T00:02:55.748Z,-0.20
2019-01-04T00:05:24.436Z,-0.30
2019-01-04T00:07:53.448Z,-0.30
2019-01-04T00:10:22.030Z,-0.30
2019-01-04T00:12:50.685Z,-0.30
2019-01-04T00:15:19.408Z,-0.30
2019-01-04T00:17:48.178Z,-0.40
2019-01-04T00:20:16.836Z,-0.40
2019-01-04T00:22:45.488Z,-0.40
2019-01-04T00:25:14.257Z,-0.40
2019-01-04T00:27:42.877Z,-0.40
2019-01-04T00:30:12.594Z,-0.40
2019-01-04T00:32:41.172Z,-0.40
2019-01-04T00:35:09.937Z,-0.40
2019-01-04T00:37:38.620Z,-0.40
2019-01-04T00:40:09.344Z,-0.40
2019-01-04T00:42:38.107Z,-0.40
2019-01-04T00:45:08.321Z,-0.40
2019-01-04T00:47:37.091Z,-0.40
2019-01-04T00:50:08.130Z,-0.40
2019-01-04T00:52:36.845Z,-0.40
2019-01-04T00:55:08.545Z,-0.40
2019-01-04T00:57:49.097Z,-0.40
2019-01-04T01:00:40.003Z,-0.40
2019-01-04T01:03:28.245Z,-0.40
2019-01-04T01:06:12.037Z,-0.40
2019-01-04T01:09:10.858Z,-0.30
2019-01-04T01:12:04.318Z,-0.20
2019-01-04T01:15:09.523Z,-0.10
2019-01-04T01:18:02.463Z,-0.10
2019-01-04T01:20:42.968Z,-0.10
2019-01-04T01:23:33.820Z,-0.10
2019-01-04T01:26:20.498Z,-0.10
2019-01-04T01:29:14.814Z,-0.10
2019-01-04T01:31:58.308Z,-0.20
2019-01-04T01:34:52.218Z,-0.20
2019-01-04T01:37:42.180Z,-0.30
2019-01-04T01:40:35.909Z,-0.30
2019-01-04T01:43:18.945Z,-0.40
2019-01-04T01:46:09.057Z,-0.50
2019-01-04T01:48:40.761Z,-0.50
2019-01-04T01:51:33.513Z,-0.50
2019-01-04T01:54:02.201Z,-0.50
2019-01-04T01:56:30.893Z,-0.50
2019-01-04T01:58:59.517Z,-0.40
2019-01-04T02:01:28.104Z,-0.30
2019-01-04T02:03:56.801Z,-0.30
2019-01-04T02:06:25.458Z,-0.30
2019-01-04T02:08:54.037Z,-0.30
2019-01-04T02:11:22.669Z,-0.30
2019-01-04T02:13:51.319Z,-0.30
2019-01-04T02:16:20.089Z,-0.40
2019-01-04T02:18:48.816Z,-0.50
2019-01-04T02:21:17.508Z,-0.50
2019-01-04T02:23:46.085Z,-0.50
2019-01-04T02:26:14.726Z,-0.50
2019-01-04T02:28:43.387Z,-0.50
2019-01-04T02:31:11.974Z,-0.50
2019-01-04T02:33:40.600Z,-0.50
2019-01-04T02:36:09.321Z,-0.40
2019-01-04T02:38:37.937Z,-0.30
2019-01-04T02:41:06.529Z,-0.40
2019-01-04T02:43:35.219Z,-0.30
2019-01-04T02:46:03.802Z,-0.30
2019-01-04T02:48:32.423Z,-0.30
2019-01-04T02:51:01.004Z,-0.30
2019-01-04T02:53:29.648Z,-0.30
2019-01-04T02:55:58.228Z,-0.30
2019-01-04T02:58:26.920Z,-0.30
2019-01-04T03:00:55.501Z,-0.30
2019-01-04T03:03:24.133Z,-0.40
2019-01-04T03:05:52.888Z,-0.40
2019-01-04T03:08:21.479Z,-0.50
2019-01-04T03:10:50.104Z,-0.50
2019-01-04T03:13:18.688Z,-0.50
2019-01-04T03:15:47.322Z,-0.50
2019-01-04T03:18:15.954Z,-0.60
2019-01-04T03:20:44.542Z,-0.60
2019-01-04T03:23:13.235Z,-0.60
2019-01-04T03:25:41.821Z,-0.60
2019-01-04T03:28:10.530Z,-0.60
2019-01-04T03:30:39.227Z,-0.50
2019-01-04T03:33:07.857Z,-0.50
2019-01-04T03:35:36.435Z,-0.40
2019-01-04T03:38:05.063Z,-0.40
2019-01-04T03:40:33.758Z,-0.40
2019-01-04T03:43:02.451Z,-0.30
2019-01-04T03:45:31.111Z,-0.20
2019-01-04T03:47:59.801Z,-0.20
2019-01-04T03:50:28.435Z,-0.10
2019-01-04T03:52:57.303Z,0.00
2019-01-04T03:55:25.884Z,0.00
2019-01-04T03:57:54.467Z,0.10
2019-01-04T04:00:23.102Z,0.20
2019-01-04T04:02:51.785Z,0.20
2019-01-04T04:05:20.496Z,0.20
2019-01-04T04:07:49.150Z,0.30
2019-01-04T04:10:17.740Z,0.30
2019-01-04T04:12:46.374Z,0.30
2019-01-04T04:15:15.028Z,0.40
2019-01-04T04:17:43.616Z,0.40
2019-01-04T04:20:12.240Z,0.40
2019-01-04T04:22:40.862Z,0.40
2019-01-04T04:25:09.513Z,0.50
2019-01-04T04:27:38.147Z,0.50
2019-01-04T04:30:08.062Z,0.60
2019-01-04T04:32:36.682Z,0.60
2019-01-04T04:35:06.001Z,0.70
2019-01-04T04:37:34.625Z,0.70
2019-01-04T04:40:03.395Z,0.70
2019-01-04T04:42:32.030Z,0.80
2019-01-04T04:45:00.613Z,0.80
2019-01-04T04:47:29.218Z,0.80
2019-01-04T04:49:57.846Z,0.80
2019-01-04T04:52:26.438Z,0.80
2019-01-04T04:54:55.529Z,0.80
2019-01-04T04:57:24.145Z,0.80
2019-01-04T04:59:52.732Z,0.90
2019-01-04T05:02:21.429Z,0.90
2019-01-04T05:04:50.051Z,0.90
2019-01-04T05:07:18.675Z,0.90
2019-01-04T05:09:47.262Z,0.90
2019-01-04T05:12:15.946Z,0.90
2019-01-04T05:14:44.524Z,0.90
2019-01-04T05:17:13.141Z,1.00
2019-01-04T05:19:41.724Z,1.00
2019-01-04T05:22:10.388Z,1.00
2019-01-04T05:24:38.969Z,1.00
2019-01-04T05:27:07.561Z,1.10
2019-01-04T05:29:36.188Z,1.20
2019-01-04T05:32:04.837Z,1.20
2019-01-04T05:34:33.414Z,1.20
2019-01-04T05:37:02.039Z,1.30
2019-01-04T05:39:30.677Z,1.30
2019-01-04T05:41:59.372Z,1.30
2019-01-04T05:44:28.063Z,1.40
2019-01-04T05:46:56.640Z,1.40
2019-01-04T05:49:25.260Z,1.40
2019-01-04T05:51:53.962Z,1.40
2019-01-04T05:54:22.539Z,1.40
2019-01-04T05:56:51.232Z,1.50
2019-01-04T05:59:19.811Z,1.40
2019-01-04T06:01:48.510Z,1.50
2019-01-04T06:04:17.106Z,1.50
2019-01-04T06:06:45.727Z,1.50
2019-01-04T06:09:14.781Z,1.60
2019-01-04T06:11:43.408Z,1.60
2019-01-04T06:14:11.991Z,1.60
2019-01-04T06:16:40.608Z,1.60
2019-01-04T06:19:09.224Z,1.70
2019-01-04T06:21:37.801Z,1.70
2019-01-04T06:24:06.422Z,1.70
2019-01-04T06:26:38.389Z,1.80
2019-01-04T06:29:07.012Z,1.80
2019-01-04T06:31:35.598Z,1.80
2019-01-04T06:34:04.314Z,1.80
2019-01-04T06:36:32.939Z,1.90
2019-01-04T06:39:01.514Z,1.90
2019-01-04T06:41:30.204Z,1.90
2019-01-04T06:43:58.791Z,1.90
2019-01-04T06:46:27.414Z,1.90
2019-01-04T06:48:55.998Z,1.90
2019-01-04T06:51:27.795Z,1.90
2019-01-04T06:53:54.896Z,1.90
2019-01-04T06:56:23.472Z,2.00
2019-01-04T06:58:52.098Z,2.00
2019-01-04T07:01:20.683Z,2.10
2019-01-04T07:03:49.307Z,2.20
2019-01-04T07:06:17.896Z,2.20
2019-01-04T07:08:46.533Z,2.30
2019-01-04T07:11:15.181Z,2.30
2019-01-04T07:13:43.762Z,2.30
2019-01-04T07:16:12.466Z,2.30
2019-01-04T07:18:59.333Z,2.30
2019-01-04T07:21:28.212Z,2.30
2019-01-04T07:23:57.064Z,2.30
2019-01-04T07:26:25.993Z,2.40
2019-01-04T07:28:54.872Z,2.30
2019-01-04T07:31:23.477Z,2.40
2019-01-04T07:33:52.160Z,2.40
2019-01-04T07:36:20.780Z,2.40
2019-01-04T07:38:49.395Z,2.50
2019-01-04T07:41:17.981Z,2.60
2019-01-04T07:43:46.595Z,2.60
2019-01-04T07:46:15.217Z,2.70
2019-01-04T07:48:43.797Z,2.70
2019-01-04T07:51:12.409Z,2.70
2019-01-04T07:53:40.985Z,2.80
2019-01-04T07:56:09.556Z,2.80
2019-01-04T07:58:38.175Z,2.90
2019-01-04T08:01:06.828Z,2.90
2019-01-04T08:03:35.440Z,2.90
2019-01-04T08:06:04.196Z,3.00
2019-01-04T08:08:32.816Z,3.00
2019-01-04T08:11:01.497Z,3.10
2019-01-04T08:13:30.173Z,3.10
2019-01-04T08:15:58.866Z,3.20
2019-01-04T08:18:27.483Z,3.20
2019-01-04T08:20:56.106Z,3.30
2019-01-04T08:23:24.695Z,3.30
2019-01-04T08:25:53.367Z,3.40
2019-01-04T08:28:21.949Z,3.40
2019-01-04T08:30:50.591Z,3.40
2019-01-04T08:33:19.217Z,3.50
2019-01-04T08:35:47.863Z,3.50
2019-01-04T08:38:16.556Z,3.50
2019-01-04T08:40:45.136Z,3.60
2019-01-04T08:43:13.722Z,3.70
2019-01-04T08:45:42.349Z,3.80
2019-01-04T08:48:10.927Z,3.90
2019-01-04T08:50:39.503Z,3.90
2019-01-04T08:53:08.129Z,3.90
2019-01-04T08:55:36.707Z,3.90
2019-01-04T08:58:05.408Z,3.90
2019-01-04T09:00:34.093Z,3.90
2019-01-04T09:03:02.707Z,3.90
2019-01-04T09:05:31.284Z,3.90
2019-01-04T09:07:59.906Z,4.00
2019-01-04T09:10:28.619Z,4.10
2019-01-04T09:12:57.241Z,4.10
2019-01-04T09:15:25.888Z,4.20
2019-01-04T09:17:54.509Z,4.20
2019-01-04T09:20:23.160Z,4.20
2019-01-04T09:22:51.900Z,4.30
2019-01-04T09:25:20.481Z,4.30
2019-01-04T09:27:49.180Z,4.30
2019-01-04T09:30:17.899Z,4.30
2019-01-04T09:32:46.477Z,4.40
2019-01-04T09:35:15.100Z,4.40
2019-01-04T09:37:43.671Z,4.40
2019-01-04T09:40:12.420Z,4.50
2019-01-04T09:42:41.176Z,4.40
2019-01-04T09:45:09.986Z,4.50
2019-01-04T09:47:38.602Z,4.50
2019-01-04T09:50:08.745Z,4.60
2019-01-04T09:52:37.435Z,4.60
2019-01-04T09:55:06.641Z,4.70
2019-01-04T09:57:35.252Z,4.80
2019-01-04T10:00:05.181Z,4.80
2019-01-04T10:02:33.745Z,4.90
2019-01-04T10:05:02.365Z,4.90
2019-01-04T10:07:31.055Z,4.90
2019-01-04T10:09:59.628Z,5.00
2019-01-04T10:12:28.264Z,5.00
2019-01-04T10:14:56.883Z,5.00
2019-01-04T10:17:25.521Z,4.90
2019-01-04T10:19:54.197Z,4.90
2019-01-04T10:22:22.804Z,4.90
2019-01-04T10:24:51.481Z,4.80
2019-01-04T10:27:20.134Z,4.80
2019-01-04T10:29:48.744Z,4.80
2019-01-04T10:32:17.384Z,4.80
2019-01-04T10:34:45.993Z,4.70
2019-01-04T10:37:14.614Z,4.70
2019-01-04T10:39:43.296Z,4.70
2019-01-04T10:42:11.903Z,4.70
2019-01-04T10:44:40.512Z,4.70
2019-01-04T10:47:09.152Z,4.80
2019-01-04T10:49:37.764Z,4.90
2019-01-04T10:52:06.379Z,4.90
2019-01-04T10:54:34.995Z,4.90
2019-01-04T10:57:03.638Z,5.00
2019-01-04T10:59:32.317Z,5.00
2019-01-04T11:02:00.929Z,4.90
2019-01-04T11:04:29.545Z,4.90
2019-01-04T11:06:58.152Z,5.00
2019-01-04T11:09:26.760Z,5.00
2019-01-04T11:11:55.327Z,5.00
2019-01-04T11:14:23.951Z,5.00
2019-01-04T11:16:52.556Z,4.90
2019-01-04T11:19:21.260Z,4.80
2019-01-04T11:21:49.876Z,4.80
2019-01-04T11:24:27.584Z,4.70
2019-01-04T11:26:56.192Z,4.60
2019-01-04T11:29:55.388Z,4.60
2019-01-04T11:32:35.812Z,4.60
2019-01-04T11:35:25.549Z,4.50
2019-01-04T11:38:15.253Z,4.50
2019-01-04T11:40:49.937Z,4.40
2019-01-04T11:43:33.151Z,4.40
2019-01-04T11:46:22.980Z,4.40
2019-01-04T11:49:03.751Z,4.50
2019-01-04T11:51:52.876Z,4.50
2019-01-04T11:54:21.456Z,4.50
2019-01-04T11:56:50.073Z,4.50
2019-01-04T11:59:18.770Z,4.50
2019-01-04T12:01:47.336Z,4.50
2019-01-04T12:04:15.953Z,4.50
2019-01-04T12:06:44.565Z,4.40
2019-01-04T12:09:13.132Z,4.40
2019-01-04T12:11:41.745Z,4.50
2019-01-04T12:14:10.372Z,4.40
2019-01-04T12:16:39.049Z,4.40
2019-01-04T12:19:07.623Z,4.30
2019-01-04T12:21:36.384Z,4.40
2019-01-04T12:24:05.097Z,4.40
2019-01-04T12:26:33.669Z,4.40
2019-01-04T12:29:02.397Z,4.40
2019-01-04T12:31:30.976Z,4.40
2019-01-04T12:33:59.656Z,4.40
2019-01-04T12:36:28.225Z,4.40
2019-01-04T12:38:56.832Z,4.40
2019-01-04T12:41:25.482Z,4.40
2019-01-04T12:43:54.161Z,4.40
2019-01-04T12:46:22.846Z,4.40
2019-01-04T12:48:51.876Z,4.40
2019-01-04T12:51:20.456Z,4.40
2019-01-04T12:53:49.029Z,4.40
2019-01-04T12:56:17.736Z,4.40
2019-01-04T12:58:47.496Z,4.40
2019-01-04T13:01:16.371Z,4.40
2019-01-04T13:03:44.981Z,4.50
2019-01-04T13:06:13.640Z,4.50
2019-01-04T13:08:42.270Z,4.60
2019-01-04T13:11:11.036Z,4.60
2019-01-04T13:13:39.600Z,4.60
2019-01-04T13:16:08.296Z,4.70
2019-01-04T13:18:36.870Z,4.70
2019-01-04T13:21:05.634Z,4.70
2019-01-04T13:23:34.214Z,4.70
2019-01-04T13:26:02.791Z,4.70
2019-01-04T13:28:31.465Z,4.70
2019-01-04T13:31:00.052Z,4.70
2019-01-04T13:33:28.748Z,4.70
2019-01-04T13:35:57.454Z,4.60
2019-01-04T13:38:26.024Z,4.70
2019-01-04T13:40:54.678Z,4.60
2019-01-04T13:43:23.296Z,4.60
2019-01-04T13:45:51.874Z,4.60
2019-01-04T13:48:20.511Z,4.50
2019-01-04T13:50:49.160Z,4.50
2019-01-04T13:53:17.740Z,4.40
2019-01-04T13:55:46.367Z,4.40
2019-01-04T13:58:14.950Z,4.40
2019-01-04T14:00:43.537Z,4.40
2019-01-04T14:03:12.157Z,4.30
2019-01-04T14:05:40.780Z,4.40
2019-01-04T14:08:09.366Z,4.40
2019-01-04T14:10:37.976Z,4.30
2019-01-04T14:13:09.358Z,4.40
2019-01-04T14:15:36.833Z,4.30
2019-01-04T14:18:05.517Z,4.30
2019-01-04T14:20:34.099Z,4.30
2019-01-04T14:23:02.719Z,4.30
2019-01-04T14:25:31.296Z,4.30
2019-01-04T14:27:59.986Z,4.30
2019-01-04T14:30:28.608Z,4.30
2019-01-04T14:32:57.189Z,4.30
2019-01-04T14:35:25.940Z,4.30
2019-01-04T14:37:54.517Z,4.30
2019-01-04T14:40:23.139Z,4.30
2019-01-04T14:42:51.824Z,4.30
2019-01-04T14:45:20.452Z,4.30
2019-01-04T14:47:49.099Z,4.30
2019-01-04T14:50:17.673Z,4.30
2019-01-04T14:52:46.295Z,4.30
2019-01-04T14:55:14.981Z,4.30
2019-01-04T14:57:43.668Z,4.30
2019-01-04T15:00:12.684Z,4.30
2019-01-04T15:02:41.381Z,4.30
2019-01-04T15:05:10.088Z,4.30
2019-01-04T15:07:38.708Z,4.30
2019-01-04T15:10:08.832Z,4.30
2019-01-04T15:12:37.520Z,4.30
2019-01-04T15:15:07.172Z,4.30
2019-01-04T15:17:35.754Z,4.30
2019-01-04T15:20:06.514Z,4.30
2019-01-04T15:22:35.133Z,4.30
2019-01-04T15:25:04.312Z,4.30
2019-01-04T15:27:32.889Z,4.30
2019-01-04T15:30:01.519Z,4.30
2019-01-04T15:32:30.156Z,4.20
2019-01-04T15:34:58.854Z,4.20
2019-01-04T15:37:27.473Z,4.20
2019-01-04T15:39:56.121Z,4.20
2019-01-04T15:42:24.737Z,4.20
2019-01-04T15:44:53.368Z,4.20
2019-01-04T15:47:21.992Z,4.20
2019-01-04T15:49:50.574Z,4.20
2019-01-04T15:52:19.192Z,4.30
2019-01-04T15:54:47.840Z,4.20
2019-01-04T15:57:16.533Z,4.20
2019-01-04T15:59:45.181Z,4.20
2019-01-04T16:02:13.804Z,4.30
2019-01-04T16:04:42.591Z,4.20
2019-01-04T16:07:11.242Z,4.20
2019-01-04T16:09:39.853Z,4.20
2019-01-04T16:15:13.278Z,4.20
2019-01-04T16:17:42.117Z,4.20
2019-01-04T16:20:11.865Z,4.20
2019-01-04T16:22:40.784Z,4.20
2019-01-04T16:25:09.480Z,4.20
2019-01-04T16:27:38.124Z,4.20
2019-01-04T16:30:09.756Z,4.30
2019-01-04T16:32:38.341Z,4.30
2019-01-04T16:35:07.104Z,4.20
2019-01-04T16:37:35.804Z,4.20
2019-01-04T16:40:06.733Z,4.30
2019-01-04T16:42:35.409Z,4.20
2019-01-04T16:45:05.472Z,4.20
2019-01-04T16:47:34.166Z,4.30
2019-01-04T16:50:03.492Z,4.20
2019-01-04T16:52:32.241Z,4.20
2019-01-04T16:55:01.147Z,4.20
2019-01-04T16:57:29.874Z,4.20
2019-01-04T16:59:58.498Z,4.20
2019-01-04T17:02:27.125Z,4.20
2019-01-04T17:04:55.712Z,4.20
2019-01-04T17:07:24.334Z,4.20
2019-01-04T17:09:52.946Z,4.20
2019-01-04T17:12:21.702Z,4.20
2019-01-04T17:14:50.275Z,4.20
2019-01-04T17:17:18.916Z,4.20
2019-01-04T17:19:47.565Z,4.20
2019-01-04T17:22:16.344Z,4.30
2019-01-04T17:24:44.925Z,4.30
2019-01-04T17:27:13.708Z,4.30
2019-01-04T17:29:42.635Z,4.30
2019-01-04T17:32:11.192Z,4.30
2019-01-04T17:34:39.804Z,4.30
2019-01-04T17:37:08.559Z,4.30
2019-01-04T17:39:37.140Z,4.30
2019-01-04T17:42:05.731Z,4.30
2019-01-04T17:44:34.413Z,4.30
2019-01-04T17:47:02.990Z,4.30
2019-01-04T17:49:31.643Z,4.30
2019-01-04T17:52:00.271Z,4.30
2019-01-04T17:54:28.902Z,4.30
2019-01-04T17:56:57.549Z,4.30
2019-01-04T17:59:26.131Z,4.40
2019-01-04T18:01:54.754Z,4.40
2019-01-04T18:04:23.445Z,4.30
2019-01-04T18:06:52.186Z,4.40
2019-01-04T18:09:20.810Z,4.40
2019-01-04T18:11:49.393Z,4.40
2019-01-04T18:14:18.009Z,4.40
2019-01-04T18:16:46.597Z,4.40
2019-01-04T18:19:15.289Z,4.40
2019-01-04T18:21:43.945Z,4.40
2019-01-04T18:24:12.526Z,4.40
2019-01-04T18:26:41.144Z,4.40
2019-01-04T18:29:09.775Z,4.40
2019-01-04T18:31:38.393Z,4.40
2019-01-04T18:34:07.102Z,4.40
2019-01-04T18:36:35.805Z,4.50
2019-01-04T18:39:05.830Z,4.50
2019-01-04T18:41:34.407Z,4.50
2019-01-04T18:44:03.102Z,4.50
2019-01-04T18:46:31.783Z,4.50
2019-01-04T18:49:00.472Z,4.50
2019-01-04T18:51:29.116Z,4.50
2019-01-04T18:53:57.769Z,4.50
2019-01-04T18:56:26.505Z,4.50
2019-01-04T18:58:55.189Z,4.50
2019-01-04T19:01:23.909Z,4.50
2019-01-04T19:03:52.606Z,4.50
2019-01-04T19:06:21.188Z,4.50
2019-01-04T19:08:49.813Z,4.50
2019-01-04T19:11:18.400Z,4.50
2019-01-04T19:13:47.090Z,4.60
2019-01-04T19:16:15.678Z,4.60
2019-01-04T19:18:44.297Z,4.60
2019-01-04T19:21:12.956Z,4.60
2019-01-04T19:23:41.618Z,4.60
2019-01-04T19:26:10.238Z,4.60
2019-01-04T19:28:38.818Z,4.60
2019-01-04T19:31:07.452Z,4.60
2019-01-04T19:33:36.096Z,4.60
2019-01-04T19:36:04.792Z,4.60
2019-01-04T19:38:33.373Z,4.60
2019-01-04T19:41:02.058Z,4.60
2019-01-04T19:43:30.680Z,4.60
2019-01-04T19:45:59.291Z,4.60
2019-01-04T19:48:27.881Z,4.60
2019-01-04T19:50:56.501Z,4.60
2019-01-04T19:53:25.082Z,4.60
2019-01-04T19:55:53.700Z,4.60
2019-01-04T19:58:22.281Z,4.60
2019-01-04T20:00:50.918Z,4.60
2019-01-04T20:03:19.506Z,4.60
2019-01-04T20:05:52.913Z,4.70
2019-01-04T20:08:35.158Z,4.70
2019-01-04T20:11:23.501Z,4.70
2019-01-04T20:14:32.981Z,4.70
2019-01-04T20:17:15.382Z,4.70
2019-01-04T20:19:49.643Z,4.70
2019-01-04T20:22:36.526Z,4.70
2019-01-04T20:25:13.168Z,4.70
2019-01-04T20:27:46.423Z,4.70
2019-01-04T20:30:22.735Z,4.70
2019-01-04T20:32:55.418Z,4.70
2019-01-04T20:35:41.953Z,4.70
2019-01-04T20:38:28.456Z,4.70
2019-01-04T20:41:10.721Z,4.70
2019-01-04T20:43:43.979Z,4.70
2019-01-04T20:46:30.541Z,4.70
2019-01-04T20:49:06.485Z,4.70
2019-01-04T20:51:39.742Z,4.70
2019-01-04T20:54:26.448Z,4.70
2019-01-04T20:56:59.539Z,4.70
2019-01-04T20:59:32.592Z,4.80
2019-01-04T21:02:05.577Z,4.70
2019-01-04T21:04:51.436Z,4.70
2019-01-04T21:07:27.795Z,4.80
2019-01-04T21:10:01.225Z,4.80
2019-01-04T21:12:47.820Z,4.80
2019-01-04T21:15:26.905Z,4.80
2019-01-04T21:18:09.049Z,4.80
2019-01-04T21:20:48.471Z,4.80
2019-01-04T21:23:18.705Z,4.80
2019-01-04T21:26:05.154Z,4.80
2019-01-04T21:28:50.608Z,4.80
2019-01-04T21:31:32.734Z,4.80
2019-01-04T21:34:05.990Z,4.80
2019-01-04T21:42:29.984Z,4.90
2019-01-04T21:45:04.705Z,4.80
2019-01-04T21:47:51.592Z,4.90
2019-01-04T21:50:34.318Z,4.80
2019-01-04T21:53:20.848Z,4.90
2019-01-04T21:56:03.148Z,4.90
2019-01-04T21:58:51.749Z,4.90
2019-01-04T22:01:38.294Z,4.90
2019-01-04T22:04:08.636Z,4.90
2019-01-04T22:06:38.939Z,4.90
2019-01-04T22:09:21.280Z,4.90
2019-01-04T22:12:00.828Z,4.90
2019-01-04T22:14:34.030Z,4.90
2019-01-04T22:17:13.016Z,4.90
2019-01-04T22:19:59.792Z,5.00
2019-01-04T22:22:30.330Z,5.00
2019-01-04T22:25:03.418Z,5.00
2019-01-04T22:27:36.413Z,5.00
2019-01-04T22:30:24.837Z,5.00
2019-01-04T22:33:11.364Z,5.00
2019-01-04T22:35:41.573Z,5.00
2019-01-04T22:38:21.161Z,5.00
2019-01-04T22:41:09.615Z,5.00
2019-01-04T22:43:42.609Z,5.10
2019-01-04T22:46:22.035Z,5.10
2019-01-04T22:48:52.380Z,5.10
2019-01-04T22:51:31.389Z,5.10
2019-01-04T22:54:01.743Z,5.10
2019-01-04T22:56:32.035Z,5.10
2019-01-04T22:59:20.413Z,5.00
2019-01-04T23:01:56.524Z,5.10
2019-01-04T23:04:29.388Z,5.00
2019-01-04T23:07:02.258Z,5.10
2019-01-04T23:09:32.533Z,5.00
2019-01-04T23:12:14.792Z,5.00
2019-01-04T23:14:54.047Z,5.00
2019-01-04T23:17:39.715Z,5.00
2019-01-04T23:20:16.209Z,5.10
2019-01-04T23:22:52.368Z,5.10
2019-01-04T23:25:28.821Z,5.10
2019-01-04T23:28:17.665Z,5.10
2019-01-04T23:31:03.092Z,5.10
2019-01-04T23:33:42.197Z,5.20
2019-01-04T23:36:24.786Z,5.20
2019-01-04T23:39:01.417Z,5.20
2019-01-04T23:41:31.901Z,5.20
2019-01-04T23:44:02.168Z,5.20
2019-01-04T23:46:32.557Z,5.20
2019-01-04T23:49:08.821Z,5.20
2019-01-04T23:51:48.072Z,5.30
2019-01-04T23:54:21.452Z,5.30
2019-01-04T23:57:08.804Z,5.30
2019-01-04T23:59:55.657Z,5.30
